Time;durP1;ratioP1;P1;durP2;ratioP2;P2;SDS_P1;SDS_P2;PMS_P1;PMS_P2;Temp;Humidity;BMP_temperature;BMP_pressure;BME280_temperature;BME280_humidity;BME280_pressure;Samples;Min_cycle;Max_cycle;Signal;HPM_P1;HPM_P2
2021/12/31 00:02:17;;;;;;;1.60;0.80;;;;;;;;;;5013812;28;20413;-70
2021/12/31 00:04:43;;;;;;;1.10;0.70;;;;;;;;;;5008093;28;20418;-69
2021/12/31 00:07:09;;;;;;;1.10;0.70;;;;;;;;;;4996612;28;20469;-70
2021/12/31 00:09:36;;;;;;;1.40;0.70;;;;;;;;;;5003459;28;20417;-70
2021/12/31 00:12:07;;;;;;;1.10;0.73;;;;;;;;;;5007979;28;20418;-69
2021/12/31 00:14:34;;;;;;;1.57;0.80;;;;;;;;;;4995999;28;20926;-71
2021/12/31 00:17:00;;;;;;;2.03;0.70;;;;;;;;;;4997140;28;20426;-71
2021/12/31 00:19:30;;;;;;;3.97;1.00;;;;;;;;;;5008180;28;21586;-71
2021/12/31 00:21:57;;;;;;;1.40;0.80;;;;;;;;;;4996477;28;20418;-72
2021/12/31 00:24:25;;;;;;;1.70;1.00;;;;;;;;;;4997968;28;20437;-70
2021/12/31 00:26:51;;;;;;;1.20;0.80;;;;;;;;;;4995625;28;20543;-70
2021/12/31 00:29:18;;;;;;;4.20;1.67;;;;;;;;;;5000901;28;20444;-69
2021/12/31 00:31:44;;;;;;;7.03;1.30;;;;;;;;;;4997124;28;20499;-70
2021/12/31 00:34:10;;;;;;;1.40;0.70;;;;;;;;;;4995440;28;21065;-71
2021/12/31 00:36:43;;;;;;;1.60;0.63;;;;;;;;;;4999797;28;20909;-71
2021/12/31 00:39:09;;;;;;;1.10;0.70;;;;;;;;;;4995488;28;20422;-72
2021/12/31 00:41:35;;;;;;;2.17;1.13;;;;;;;;;;5008427;28;20429;-71
2021/12/31 00:44:01;;;;;;;1.20;0.70;;;;;;;;;;5012406;28;20448;-71
2021/12/31 00:46:30;;;;;;;1.20;0.80;;;;;;;;;;5010224;28;20430;-72
2021/12/31 00:48:56;;;;;;;1.60;1.00;;;;;;;;;;4994926;28;20495;-71
2021/12/31 00:51:22;;;;;;;1.40;0.90;;;;;;;;;;5006362;28;20413;-73
2021/12/31 00:53:48;;;;;;;4.17;0.90;;;;;;;;;;5013603;28;20429;-72
2021/12/31 00:56:14;;;;;;;5.33;1.07;;;;;;;;;;5014108;28;20421;-73
2021/12/31 00:58:40;;;;;;;1.73;1.07;;;;;;;;;;4996522;28;20434;-73
2021/12/31 01:01:06;;;;;;;1.70;0.87;;;;;;;;;;4994565;28;20465;-73
2021/12/31 01:03:32;;;;;;;1.00;0.60;;;;;;;;;;5017496;28;20425;-73
2021/12/31 01:05:59;;;;;;;1.60;0.70;;;;;;;;;;5016937;28;20465;-70
2021/12/31 01:08:25;;;;;;;2.23;0.90;;;;;;;;;;5003003;28;20453;-71
2021/12/31 01:10:51;;;;;;;1.00;0.60;;;;;;;;;;5013893;28;20448;-69
2021/12/31 01:13:27;;;;;;;1.00;0.60;;;;;;;;;;5014248;28;20436;-70
2021/12/31 01:15:58;;;;;;;1.77;0.90;;;;;;;;;;5013527;28;20421;-69
2021/12/31 01:19:44;;;;;;;1.97;0.70;;;;;;;;;;5014184;28;20924;-70
2021/12/31 01:21:10;;;;;;;1.27;0.70;;;;;;;;;;5015208;28;20471;-67
2021/12/31 01:23:36;;;;;;;1.00;0.60;;;;;;;;;;5014331;28;20429;-67
2021/12/31 01:26:02;;;;;;;1.30;0.80;;;;;;;;;;5014636;28;20409;-71
2021/12/31 01:28:28;;;;;;;3.93;0.90;;;;;;;;;;5009993;28;20812;-69
2021/12/31 01:30:54;;;;;;;3.00;0.80;;;;;;;;;;5000311;28;20762;-67
2021/12/31 01:33:20;;;;;;;2.27;0.80;;;;;;;;;;5002087;28;20439;-69
2021/12/31 01:35:46;;;;;;;1.00;0.60;;;;;;;;;;5002707;28;20417;-68
2021/12/31 01:38:12;;;;;;;1.10;0.70;;;;;;;;;;5012279;28;20417;-68
2021/12/31 01:40:38;;;;;;;3.13;0.80;;;;;;;;;;5007852;28;20417;-69
2021/12/31 01:43:05;;;;;;;2.70;0.80;;;;;;;;;;5009477;28;20785;-68
2021/12/31 01:45:33;;;;;;;1.00;0.70;;;;;;;;;;5002535;28;20455;-69
2021/12/31 01:48:09;;;;;;;1.20;0.70;;;;;;;;;;5007975;28;20479;-67
2021/12/31 01:50:36;;;;;;;1.23;0.80;;;;;;;;;;5012559;28;20428;-69
2021/12/31 01:53:03;;;;;;;1.93;0.90;;;;;;;;;;4998005;28;20525;-70
2021/12/31 01:55:33;;;;;;;1.00;0.60;;;;;;;;;;5005712;28;20413;-67
2021/12/31 01:58:01;;;;;;;5.27;0.80;;;;;;;;;;5013627;28;20421;-69
2021/12/31 02:00:27;;;;;;;1.10;0.70;;;;;;;;;;5012197;28;20432;-69
2021/12/31 02:02:53;;;;;;;0.93;0.60;;;;;;;;;;5006092;28;21125;-68
2021/12/31 02:05:19;;;;;;;1.43;0.83;;;;;;;;;;5001468;28;20915;-67
2021/12/31 02:07:45;;;;;;;1.10;0.60;;;;;;;;;;5008845;28;20465;-70
2021/12/31 02:10:11;;;;;;;1.00;0.70;;;;;;;;;;5004025;28;20448;-69
2021/12/31 02:12:41;;;;;;;1.93;1.27;;;;;;;;;;5007904;28;20434;-70
2021/12/31 02:15:08;;;;;;;1.20;0.70;;;;;;;;;;5004103;28;20440;-68
2021/12/31 02:17:34;;;;;;;1.00;0.60;;;;;;;;;;5008560;28;20894;-70
2021/12/31 02:20:04;;;;;;;0.97;0.57;;;;;;;;;;5001809;28;20430;-70
2021/12/31 02:22:30;;;;;;;2.37;1.27;;;;;;;;;;5010611;28;20431;-69
2021/12/31 02:24:57;;;;;;;1.20;0.70;;;;;;;;;;5012514;28;20417;-70
2021/12/31 02:27:24;;;;;;;1.30;0.60;;;;;;;;;;5002015;28;20453;-69
2021/12/31 02:29:50;;;;;;;1.10;0.70;;;;;;;;;;5013245;28;20417;-69
2021/12/31 02:32:16;;;;;;;1.00;0.60;;;;;;;;;;5016763;28;20415;-68
2021/12/31 02:34:42;;;;;;;1.87;0.60;;;;;;;;;;5032354;28;20499;-70
2021/12/31 02:37:08;;;;;;;1.50;0.90;;;;;;;;;;4997796;28;20783;-69
2021/12/31 02:39:38;;;;;;;1.43;0.60;;;;;;;;;;5007019;28;20413;-71
2021/12/31 02:42:04;;;;;;;1.00;0.70;;;;;;;;;;5012218;28;20413;-69
2021/12/31 02:44:30;;;;;;;2.20;1.10;;;;;;;;;;5010817;28;20441;-69
2021/12/31 02:46:58;;;;;;;1.50;0.70;;;;;;;;;;4994784;28;20454;-69
2021/12/31 02:49:24;;;;;;;1.40;0.80;;;;;;;;;;5006350;28;20903;-69
2021/12/31 02:51:50;;;;;;;1.80;0.97;;;;;;;;;;4992590;28;20426;-71
2021/12/31 02:54:17;;;;;;;1.00;0.60;;;;;;;;;;4992760;28;20962;-69
2021/12/31 02:56:43;;;;;;;1.00;0.60;;;;;;;;;;4992798;28;20554;-69
2021/12/31 02:59:10;;;;;;;1.00;0.60;;;;;;;;;;5002338;28;20430;-72
2021/12/31 03:01:36;;;;;;;1.10;0.60;;;;;;;;;;5001383;28;20787;-71
2021/12/31 03:04:04;;;;;;;3.33;1.00;;;;;;;;;;5004743;28;20433;-70
2021/12/31 03:06:30;;;;;;;3.03;0.60;;;;;;;;;;4996389;28;20418;-70
2021/12/31 03:08:57;;;;;;;0.90;0.50;;;;;;;;;;5005282;28;20459;-69
2021/12/31 03:11:23;;;;;;;1.00;0.63;;;;;;;;;;5011691;28;20441;-68
2021/12/31 03:13:54;;;;;;;3.07;0.80;;;;;;;;;;5011905;28;20433;-66
2021/12/31 03:16:24;;;;;;;1.33;0.70;;;;;;;;;;5012301;28;20467;-68
2021/12/31 03:18:55;;;;;;;1.00;0.50;;;;;;;;;;5010361;28;20410;-68
2021/12/31 03:21:21;;;;;;;3.93;0.70;;;;;;;;;;5005579;28;20961;-69
2021/12/31 03:23:49;;;;;;;1.10;0.67;;;;;;;;;;4992476;28;20441;-68
2021/12/31 03:26:15;;;;;;;1.00;0.60;;;;;;;;;;4992027;28;20407;-66
2021/12/31 03:28:41;;;;;;;1.10;0.70;;;;;;;;;;4998929;28;20465;-66
2021/12/31 03:31:07;;;;;;;1.83;0.77;;;;;;;;;;5010682;28;20445;-68
2021/12/31 03:33:33;;;;;;;1.00;0.63;;;;;;;;;;5012845;28;20448;-66
2021/12/31 03:35:59;;;;;;;1.40;0.60;;;;;;;;;;5011877;28;20452;-68
2021/12/31 03:38:25;;;;;;;0.90;0.50;;;;;;;;;;5011590;28;20429;-68
2021/12/31 03:40:51;;;;;;;1.63;0.63;;;;;;;;;;5010505;28;20424;-70
2021/12/31 03:43:17;;;;;;;1.23;0.70;;;;;;;;;;4999878;28;20489;-69
2021/12/31 03:45:44;;;;;;;4.80;0.60;;;;;;;;;;5007417;28;20423;-71
2021/12/31 03:48:11;;;;;;;2.77;0.60;;;;;;;;;;4996969;28;20473;-69
2021/12/31 03:50:37;;;;;;;1.00;0.60;;;;;;;;;;5000844;28;20414;-67
2021/12/31 03:53:03;;;;;;;0.90;0.50;;;;;;;;;;4992258;28;20450;-68
2021/12/31 03:55:29;;;;;;;1.00;0.63;;;;;;;;;;4991966;28;20433;-70
2021/12/31 03:57:55;;;;;;;1.73;0.67;;;;;;;;;;4995064;28;20501;-69
2021/12/31 04:00:21;;;;;;;2.50;1.00;;;;;;;;;;5010596;28;20418;-69
2021/12/31 04:02:47;;;;;;;1.10;0.60;;;;;;;;;;5011039;28;20937;-70
2021/12/31 04:05:13;;;;;;;1.10;0.67;;;;;;;;;;5006574;28;20419;-70
2021/12/31 04:07:40;;;;;;;1.50;0.80;;;;;;;;;;4995312;28;20456;-68
2021/12/31 04:10:06;;;;;;;1.30;0.73;;;;;;;;;;4998977;28;20429;-70
2021/12/31 04:12:32;;;;;;;1.33;0.70;;;;;;;;;;4998012;28;20505;-67
2021/12/31 04:14:58;;;;;;;9.60;1.27;;;;;;;;;;5010517;28;20465;-70
2021/12/31 04:17:24;;;;;;;10.00;1.00;;;;;;;;;;5011194;28;20429;-71
2021/12/31 04:19:55;;;;;;;1.40;0.80;;;;;;;;;;5010462;28;20425;-71
2021/12/31 04:22:24;;;;;;;9.67;1.57;;;;;;;;;;5006093;28;20500;-71
2021/12/31 04:27:16;;;;;;;2.03;0.90;;;;;;;;;;5007498;28;20457;-70
2021/12/31 04:29:49;;;;;;;10.10;1.63;;;;;;;;;;4995796;28;20958;-70
2021/12/31 04:32:15;;;;;;;2.93;1.20;;;;;;;;;;5010442;28;20460;-71
2021/12/31 04:34:41;;;;;;;1.67;0.70;;;;;;;;;;5010454;28;20409;-70
2021/12/31 04:37:07;;;;;;;5.80;1.50;;;;;;;;;;5002562;28;20426;-70
2021/12/31 04:39:33;;;;;;;1.93;1.07;;;;;;;;;;5010761;28;20418;-72
2021/12/31 04:41:59;;;;;;;2.20;1.10;;;;;;;;;;5010742;28;20790;-71
2021/12/31 04:44:26;;;;;;;1.83;0.90;;;;;;;;;;5008702;28;20922;-69
2021/12/31 04:46:52;;;;;;;3.10;1.00;;;;;;;;;;5027332;28;20499;-69
2021/12/31 04:49:18;;;;;;;1.77;0.80;;;;;;;;;;5000172;28;20406;-70
2021/12/31 04:51:44;;;;;;;1.30;0.83;;;;;;;;;;4994435;28;20414;-69
2021/12/31 04:54:15;;;;;;;1.30;0.90;;;;;;;;;;5010155;28;20890;-70
2021/12/31 04:56:42;;;;;;;1.27;0.93;;;;;;;;;;4999188;28;20421;-71
2021/12/31 04:59:09;;;;;;;1.73;0.80;;;;;;;;;;5007491;28;20449;-71
2021/12/31 05:01:35;;;;;;;2.77;1.00;;;;;;;;;;5014240;28;20416;-70
2021/12/31 05:04:01;;;;;;;1.20;0.70;;;;;;;;;;4996125;28;20509;-71
2021/12/31 05:06:27;;;;;;;1.10;0.70;;;;;;;;;;4995186;28;20407;-71
2021/12/31 05:08:53;;;;;;;1.40;0.90;;;;;;;;;;4994913;28;20434;-71
2021/12/31 05:11:19;;;;;;;1.30;0.80;;;;;;;;;;4994910;28;20437;-71
2021/12/31 05:13:46;;;;;;;1.40;0.70;;;;;;;;;;4994885;28;20433;-72
2021/12/31 05:16:12;;;;;;;1.30;0.93;;;;;;;;;;4995265;28;20867;-71
2021/12/31 05:18:38;;;;;;;1.03;0.70;;;;;;;;;;5011984;28;20410;-70
2021/12/31 05:21:04;;;;;;;1.70;0.90;;;;;;;;;;4998799;28;20413;-72
2021/12/31 05:23:30;;;;;;;1.00;0.60;;;;;;;;;;5014084;28;20521;-72
2021/12/31 05:25:56;;;;;;;1.10;0.70;;;;;;;;;;5002698;28;20472;-72
2021/12/31 05:28:23;;;;;;;1.60;0.83;;;;;;;;;;5008313;28;20457;-73
2021/12/31 05:30:49;;;;;;;2.27;0.83;;;;;;;;;;5012045;28;20410;-72
2021/12/31 05:33:15;;;;;;;1.30;0.90;;;;;;;;;;4994836;28;20423;-71
2021/12/31 05:35:41;;;;;;;1.00;0.60;;;;;;;;;;5001091;28;20422;-71
2021/12/31 05:38:07;;;;;;;1.10;0.70;;;;;;;;;;4998658;28;20471;-69
2021/12/31 05:40:34;;;;;;;2.13;0.80;;;;;;;;;;5008273;28;20425;-69
2021/12/31 05:43:00;;;;;;;2.27;1.00;;;;;;;;;;5006856;28;20442;-72
2021/12/31 05:45:26;;;;;;;3.00;0.80;;;;;;;;;;4997778;28;20475;-70
2021/12/31 05:47:53;;;;;;;3.87;0.90;;;;;;;;;;5012771;28;20510;-72
2021/12/31 05:50:28;;;;;;;1.30;0.80;;;;;;;;;;5006960;28;20413;-72
2021/12/31 05:52:57;;;;;;;1.40;0.80;;;;;;;;;;5013607;28;20441;-71
2021/12/31 05:55:24;;;;;;;1.10;0.73;;;;;;;;;;5011300;28;20421;-69
2021/12/31 05:57:50;;;;;;;3.20;1.03;;;;;;;;;;5005714;28;20425;-71
2021/12/31 06:00:17;;;;;;;1.40;0.70;;;;;;;;;;5009298;28;20521;-71
2021/12/31 06:02:43;;;;;;;1.47;0.80;;;;;;;;;;5009164;28;20441;-69
2021/12/31 06:05:09;;;;;;;1.20;0.70;;;;;;;;;;5001954;28;20425;-70
2021/12/31 06:07:35;;;;;;;1.10;0.63;;;;;;;;;;5004035;28;20512;-70
2021/12/31 06:10:01;;;;;;;1.20;0.70;;;;;;;;;;5010576;28;20517;-71
2021/12/31 06:12:28;;;;;;;1.60;0.80;;;;;;;;;;5010742;28;20449;-71
2021/12/31 06:14:58;;;;;;;1.90;1.03;;;;;;;;;;5010322;28;20939;-71
2021/12/31 06:17:26;;;;;;;2.07;0.90;;;;;;;;;;5012201;28;20426;-71
2021/12/31 06:19:53;;;;;;;0.97;0.60;;;;;;;;;;5012358;28;20949;-70
2021/12/31 06:22:19;;;;;;;1.40;0.80;;;;;;;;;;5002059;28;20429;-71
2021/12/31 06:24:45;;;;;;;2.53;0.90;;;;;;;;;;5006937;28;20421;-71
2021/12/31 06:27:11;;;;;;;1.20;0.70;;;;;;;;;;5012015;28;20456;-69
2021/12/31 06:29:37;;;;;;;1.57;0.80;;;;;;;;;;4999617;28;20923;-69
2021/12/31 06:32:04;;;;;;;1.23;0.63;;;;;;;;;;5008162;28;20413;-70
2021/12/31 06:34:30;;;;;;;2.70;1.00;;;;;;;;;;5012764;28;20511;-70
2021/12/31 06:36:56;;;;;;;1.93;1.10;;;;;;;;;;5008023;28;20426;-69
2021/12/31 06:39:22;;;;;;;1.43;0.77;;;;;;;;;;5008754;28;20502;-71
2021/12/31 06:41:49;;;;;;;1.60;1.00;;;;;;;;;;5002461;28;20501;-71
2021/12/31 06:44:15;;;;;;;1.00;0.80;;;;;;;;;;4995415;28;20434;-70
2021/12/31 06:46:41;;;;;;;2.20;0.90;;;;;;;;;;5012523;28;20417;-72
2021/12/31 06:49:07;;;;;;;3.23;1.47;;;;;;;;;;5001978;28;20417;-71
2021/12/31 06:51:33;;;;;;;1.97;1.10;;;;;;;;;;5001956;28;20420;-72
2021/12/31 06:53:59;;;;;;;1.27;0.80;;;;;;;;;;4998291;28;20481;-72
2021/12/31 06:56:25;;;;;;;2.40;0.80;;;;;;;;;;4993028;28;20465;-71
2021/12/31 06:58:51;;;;;;;3.13;1.13;;;;;;;;;;4992835;28;20410;-72
2021/12/31 07:01:17;;;;;;;2.87;1.10;;;;;;;;;;4996664;28;20440;-71
2021/12/31 07:03:43;;;;;;;8.77;1.17;;;;;;;;;;5012103;28;20436;-71
2021/12/31 07:06:09;;;;;;;1.53;0.80;;;;;;;;;;4998667;28;20418;-72
2021/12/31 07:08:35;;;;;;;1.30;0.80;;;;;;;;;;5011758;28;21114;-70
2021/12/31 07:11:01;;;;;;;2.03;1.13;;;;;;;;;;5002830;28;21032;-72
2021/12/31 07:13:27;;;;;;;4.23;1.03;;;;;;;;;;5012066;28;20430;-72
2021/12/31 07:15:54;;;;;;;5.53;1.00;;;;;;;;;;5009467;28;20445;-71
2021/12/31 07:18:21;;;;;;;2.17;1.00;;;;;;;;;;4992607;28;20423;-72
2021/12/31 07:20:48;;;;;;;1.60;0.73;;;;;;;;;;4992743;28;20423;-71
2021/12/31 07:23:16;;;;;;;8.53;1.57;;;;;;;;;;5027116;28;20474;-70
2021/12/31 07:25:42;;;;;;;2.83;0.80;;;;;;;;;;5012256;28;20413;-70
2021/12/31 07:28:09;;;;;;;1.60;0.93;;;;;;;;;;5011836;28;20469;-71
2021/12/31 07:30:35;;;;;;;2.03;0.90;;;;;;;;;;5004863;28;20413;-70
2021/12/31 07:33:01;;;;;;;3.63;1.33;;;;;;;;;;5001140;28;20437;-68
2021/12/31 07:35:27;;;;;;;6.50;1.97;;;;;;;;;;5011336;28;20410;-71
2021/12/31 07:37:55;;;;;;;5.87;2.17;;;;;;;;;;5011738;28;20418;-72
2021/12/31 07:40:27;;;;;;;6.80;2.40;;;;;;;;;;5010625;28;20413;-71
2021/12/31 07:42:53;;;;;;;6.53;1.80;;;;;;;;;;4995523;28;20445;-69
2021/12/31 07:45:20;;;;;;;4.70;1.63;;;;;;;;;;4998316;28;20505;-71
2021/12/31 07:47:46;;;;;;;13.40;5.77;;;;;;;;;;5009606;28;21315;-69
2021/12/31 07:50:12;;;;;;;14.47;6.53;;;;;;;;;;5011017;28;20821;-72
2021/12/31 07:52:39;;;;;;;25.77;6.87;;;;;;;;;;5010204;28;20506;-71
2021/12/31 07:55:05;;;;;;;17.53;3.30;;;;;;;;;;5011852;28;20463;-70
2021/12/31 07:57:31;;;;;;;7.60;3.30;;;;;;;;;;5010182;28;20440;-74
2021/12/31 07:59:57;;;;;;;9.67;4.00;;;;;;;;;;5006419;28;20440;-72
2021/12/31 08:02:23;;;;;;;8.50;4.20;;;;;;;;;;5002240;28;20430;-71
2021/12/31 08:04:49;;;;;;;7.30;4.30;;;;;;;;;;5005672;28;20415;-72
2021/12/31 08:07:15;;;;;;;9.77;3.53;;;;;;;;;;5006706;28;20460;-73
2021/12/31 08:09:41;;;;;;;9.03;3.20;;;;;;;;;;5006517;28;20417;-69
2021/12/31 08:12:08;;;;;;;32.47;7.03;;;;;;;;;;5006797;28;20504;-72
2021/12/31 08:14:34;;;;;;;7.17;2.80;;;;;;;;;;5006750;28;20436;-71
2021/12/31 08:17:00;;;;;;;3.33;2.00;;;;;;;;;;5005626;28;20426;-73
2021/12/31 08:19:26;;;;;;;10.23;3.20;;;;;;;;;;5015639;28;20405;-71
2021/12/31 08:21:52;;;;;;;8.90;3.40;;;;;;;;;;5004504;28;20428;-70
2021/12/31 08:24:18;;;;;;;10.07;3.70;;;;;;;;;;5016071;28;20447;-73
2021/12/31 08:26:44;;;;;;;7.00;2.47;;;;;;;;;;5012650;28;20432;-71
2021/12/31 08:29:12;;;;;;;6.53;2.77;;;;;;;;;;5010387;28;20425;-70
2021/12/31 08:31:40;;;;;;;6.43;2.97;;;;;;;;;;5016128;28;20550;-72
2021/12/31 08:34:08;;;;;;;3.73;2.00;;;;;;;;;;5008922;28;20830;-71
2021/12/31 08:36:34;;;;;;;3.90;2.03;;;;;;;;;;5007229;28;20425;-70
2021/12/31 08:39:00;;;;;;;4.60;1.80;;;;;;;;;;5014495;28;20922;-71
2021/12/31 08:41:26;;;;;;;3.43;2.00;;;;;;;;;;5012409;28;20436;-71
2021/12/31 08:43:52;;;;;;;4.70;1.73;;;;;;;;;;4995270;28;20434;-69
2021/12/31 08:46:19;;;;;;;2.40;1.63;;;;;;;;;;4996377;28;20497;-73
2021/12/31 08:48:45;;;;;;;3.60;1.47;;;;;;;;;;5009495;28;21033;-72
2021/12/31 08:51:11;;;;;;;5.10;1.70;;;;;;;;;;4997803;28;20514;-71
2021/12/31 08:53:37;;;;;;;4.30;2.00;;;;;;;;;;5005995;28;20528;-74
2021/12/31 08:56:03;;;;;;;5.40;1.40;;;;;;;;;;4999577;28;20992;-71
2021/12/31 08:58:29;;;;;;;6.10;2.53;;;;;;;;;;5012920;28;20436;-68
2021/12/31 09:00:56;;;;;;;8.00;3.57;;;;;;;;;;5030350;28;20424;-71
2021/12/31 09:03:22;;;;;;;6.57;2.23;;;;;;;;;;5007922;28;20451;-69
2021/12/31 09:05:48;;;;;;;4.37;1.97;;;;;;;;;;5011793;28;20432;-68
2021/12/31 09:08:15;;;;;;;5.97;2.60;;;;;;;;;;5011325;28;22135;-73
2021/12/31 09:10:41;;;;;;;6.67;2.67;;;;;;;;;;5012857;28;20440;-73
2021/12/31 09:13:07;;;;;;;7.87;2.70;;;;;;;;;;5012177;28;20433;-71
2021/12/31 09:15:33;;;;;;;6.00;2.70;;;;;;;;;;5012987;28;20417;-69
2021/12/31 09:17:59;;;;;;;6.10;2.70;;;;;;;;;;5011989;28;20436;-70
2021/12/31 09:20:26;;;;;;;6.37;2.80;;;;;;;;;;5012080;28;20503;-69
2021/12/31 09:22:53;;;;;;;6.40;2.00;;;;;;;;;;5008116;28;20871;-69
2021/12/31 09:25:19;;;;;;;3.47;1.47;;;;;;;;;;5000689;28;20778;-72
2021/12/31 09:27:45;;;;;;;5.13;2.20;;;;;;;;;;5013402;28;20461;-73
2021/12/31 09:30:12;;;;;;;2.80;1.47;;;;;;;;;;5010255;28;20417;-71
2021/12/31 09:32:38;;;;;;;2.33;1.30;;;;;;;;;;5009137;28;20444;-72
2021/12/31 09:35:04;;;;;;;3.20;1.67;;;;;;;;;;5013737;28;20405;-72
2021/12/31 09:37:30;;;;;;;6.93;1.53;;;;;;;;;;5014274;28;20421;-73
2021/12/31 09:39:56;;;;;;;2.93;1.27;;;;;;;;;;5007123;28;20407;-73
2021/12/31 09:42:22;;;;;;;2.33;1.60;;;;;;;;;;5002976;28;20513;-74
2021/12/31 09:44:48;;;;;;;1.70;1.20;;;;;;;;;;4999121;28;20419;-74
2021/12/31 09:47:18;;;;;;;4.03;1.50;;;;;;;;;;4999970;28;20469;-74
2021/12/31 09:49:44;;;;;;;2.63;1.23;;;;;;;;;;5000228;28;20426;-72
2021/12/31 09:52:11;;;;;;;2.00;1.00;;;;;;;;;;4997785;28;20421;-73
2021/12/31 09:54:48;;;;;;;1.87;1.10;;;;;;;;;;4994094;28;20438;-74
2021/12/31 09:57:15;;;;;;;2.93;1.47;;;;;;;;;;4996309;28;20765;-70
2021/12/31 09:59:41;;;;;;;3.87;1.60;;;;;;;;;;5002872;28;20421;-74
2021/12/31 10:02:11;;;;;;;3.50;1.70;;;;;;;;;;5013051;28;21007;-74
2021/12/31 10:04:57;;;;;;;2.40;1.20;;;;;;;;;;4997125;28;20434;-72
2021/12/31 10:07:24;;;;;;;2.90;1.60;;;;;;;;;;5002281;28;20457;-74
2021/12/31 10:10:02;;;;;;;2.53;1.53;;;;;;;;;;5002122;28;20500;-70
2021/12/31 10:12:43;;;;;;;2.50;1.50;;;;;;;;;;5004791;28;20450;-72
2021/12/31 10:15:09;;;;;;;3.03;1.40;;;;;;;;;;5021988;28;20500;-75
2021/12/31 10:17:35;;;;;;;3.97;1.63;;;;;;;;;;5013122;28;20460;-74
2021/12/31 10:20:01;;;;;;;2.93;1.73;;;;;;;;;;5012865;28;20830;-74
2021/12/31 10:22:28;;;;;;;3.20;1.40;;;;;;;;;;5001857;28;20433;-72
2021/12/31 10:24:54;;;;;;;3.40;1.87;;;;;;;;;;4993415;28;20510;-70
2021/12/31 10:27:20;;;;;;;3.70;1.40;;;;;;;;;;5000540;28;20536;-70
2021/12/31 10:29:52;;;;;;;1.90;1.37;;;;;;;;;;5011514;28;20424;-71
2021/12/31 10:32:19;;;;;;;2.20;1.00;;;;;;;;;;4998439;28;20426;-69
2021/12/31 10:34:45;;;;;;;2.00;1.30;;;;;;;;;;5009358;28;20500;-68
2021/12/31 10:37:18;;;;;;;3.53;1.27;;;;;;;;;;4993833;28;20481;-69
2021/12/31 10:39:44;;;;;;;1.50;0.90;;;;;;;;;;4993056;28;20775;-72
2021/12/31 10:42:12;;;;;;;2.60;1.37;;;;;;;;;;4992272;28;20487;-72
2021/12/31 10:44:41;;;;;;;2.80;1.20;;;;;;;;;;4997717;28;20750;-70
2021/12/31 10:47:08;;;;;;;4.07;1.30;;;;;;;;;;4997297;28;21100;-72
2021/12/31 10:49:36;;;;;;;1.87;1.07;;;;;;;;;;4994317;28;20403;-70
2021/12/31 10:52:05;;;;;;;2.00;1.20;;;;;;;;;;4997689;28;20409;-73
2021/12/31 10:54:37;;;;;;;1.90;1.00;;;;;;;;;;5012303;28;20433;-71
2021/12/31 10:57:04;;;;;;;1.20;0.70;;;;;;;;;;4995794;28;20425;-72
2021/12/31 10:59:36;;;;;;;1.60;1.10;;;;;;;;;;5011373;28;20422;-69
2021/12/31 11:02:04;;;;;;;1.57;0.80;;;;;;;;;;5011155;28;20417;-72
2021/12/31 11:04:31;;;;;;;2.83;1.37;;;;;;;;;;5012143;28;20719;-71
2021/12/31 11:06:57;;;;;;;1.83;1.00;;;;;;;;;;5001393;28;20941;-72
2021/12/31 11:09:24;;;;;;;1.50;0.93;;;;;;;;;;4999968;28;20414;-69
2021/12/31 11:11:51;;;;;;;1.20;0.70;;;;;;;;;;4992182;28;20438;-69
2021/12/31 11:14:17;;;;;;;1.60;1.00;;;;;;;;;;5009646;28;20444;-70
2021/12/31 11:16:43;;;;;;;2.17;1.10;;;;;;;;;;5011420;28;20413;-69
2021/12/31 11:19:10;;;;;;;2.67;1.20;;;;;;;;;;5012598;28;20409;-68
2021/12/31 11:21:37;;;;;;;2.40;1.30;;;;;;;;;;4992798;28;20414;-68
2021/12/31 11:24:22;;;;;;;1.90;0.97;;;;;;;;;;4993105;28;20466;-70
2021/12/31 11:26:48;;;;;;;1.30;0.70;;;;;;;;;;4995410;28;20409;-68
2021/12/31 11:29:18;;;;;;;1.50;1.00;;;;;;;;;;5001795;28;20437;-70
2021/12/31 11:31:44;;;;;;;1.33;0.90;;;;;;;;;;4996718;28;20432;-71
2021/12/31 11:34:12;;;;;;;1.40;1.00;;;;;;;;;;5006612;28;20921;-69
2021/12/31 11:36:52;;;;;;;1.10;0.63;;;;;;;;;;5001847;28;20416;-70
2021/12/31 11:39:21;;;;;;;1.23;0.83;;;;;;;;;;5008276;28;20417;-69
2021/12/31 11:41:48;;;;;;;1.63;0.70;;;;;;;;;;5006393;28;20417;-68
2021/12/31 11:44:15;;;;;;;1.20;0.70;;;;;;;;;;5008223;28;20485;-69
2021/12/31 11:46:42;;;;;;;3.43;0.83;;;;;;;;;;5008375;28;20432;-68
2021/12/31 11:49:09;;;;;;;1.30;0.80;;;;;;;;;;5010425;28;20472;-67
2021/12/31 11:51:36;;;;;;;1.73;0.70;;;;;;;;;;5007707;28;20438;-69
2021/12/31 11:54:04;;;;;;;1.27;0.80;;;;;;;;;;5006701;28;20441;-70
2021/12/31 11:56:36;;;;;;;1.10;0.70;;;;;;;;;;5007357;28;20934;-67
2021/12/31 12:01:35;;;;;;;1.40;0.70;;;;;;;;;;5012257;28;20420;-67
2021/12/31 12:04:20;;;;;;;1.93;0.67;;;;;;;;;;5004337;28;20451;-68
2021/12/31 12:06:59;;;;;;;1.00;0.50;;;;;;;;;;4995341;28;20510;-68
2021/12/31 12:09:46;;;;;;;1.17;0.70;;;;;;;;;;4998057;28;20995;-68
2021/12/31 12:12:16;;;;;;;1.50;0.70;;;;;;;;;;4999830;28;20425;-68
2021/12/31 12:14:49;;;;;;;1.07;0.63;;;;;;;;;;5017137;28;20422;-69
2021/12/31 12:17:16;;;;;;;1.00;0.53;;;;;;;;;;5006690;28;20410;-69
2021/12/31 12:20:02;;;;;;;1.07;0.57;;;;;;;;;;5004120;28;20413;-68
2021/12/31 12:22:33;;;;;;;1.00;0.50;;;;;;;;;;4998990;28;20500;-69
2021/12/31 12:25:06;;;;;;;1.50;0.83;;;;;;;;;;5005628;28;20829;-69
2021/12/31 12:27:33;;;;;;;1.00;0.60;;;;;;;;;;4999347;28;20492;-69
2021/12/31 12:30:01;;;;;;;1.53;1.07;;;;;;;;;;5006237;28;20428;-68
2021/12/31 12:32:37;;;;;;;1.43;1.00;;;;;;;;;;5006496;28;20420;-68
2021/12/31 12:35:17;;;;;;;2.03;0.90;;;;;;;;;;5002841;28;20482;-67
2021/12/31 12:37:44;;;;;;;4.90;1.20;;;;;;;;;;5008725;28;20456;-68
2021/12/31 12:40:10;;;;;;;1.20;0.70;;;;;;;;;;5005260;28;20421;-68
2021/12/31 12:42:37;;;;;;;1.53;0.93;;;;;;;;;;5009469;28;20437;-69
2021/12/31 12:45:04;;;;;;;2.60;0.90;;;;;;;;;;5011468;28;20878;-68
2021/12/31 12:47:30;;;;;;;1.10;0.60;;;;;;;;;;5006288;28;20464;-68
2021/12/31 12:49:58;;;;;;;1.30;0.80;;;;;;;;;;4993550;28;20749;-69
2021/12/31 12:52:24;;;;;;;1.60;1.07;;;;;;;;;;5002468;28;20468;-67
2021/12/31 12:55:07;;;;;;;1.47;0.90;;;;;;;;;;5010097;28;20418;-67
2021/12/31 12:57:33;;;;;;;4.93;1.00;;;;;;;;;;4991549;28;20414;-66
2021/12/31 13:00:00;;;;;;;1.40;0.70;;;;;;;;;;5007506;28;20412;-67
2021/12/31 13:02:41;;;;;;;1.60;1.00;;;;;;;;;;4999520;28;20930;-68
2021/12/31 13:05:08;;;;;;;1.10;0.70;;;;;;;;;;5013463;28;20424;-67
2021/12/31 13:07:34;;;;;;;1.73;0.90;;;;;;;;;;5011214;28;20825;-67
2021/12/31 13:10:05;;;;;;;1.80;0.80;;;;;;;;;;5008640;28;20441;-68
2021/12/31 13:12:32;;;;;;;1.50;0.83;;;;;;;;;;5007238;28;20433;-67
2021/12/31 13:14:58;;;;;;;1.10;0.60;;;;;;;;;;5013646;28;20892;-68
2021/12/31 13:17:27;;;;;;;1.60;0.80;;;;;;;;;;5006266;28;20876;-69
2021/12/31 13:20:03;;;;;;;1.60;0.90;;;;;;;;;;5012347;28;20441;-67
2021/12/31 13:22:34;;;;;;;2.50;0.93;;;;;;;;;;5006265;28;20459;-69
2021/12/31 13:25:00;;;;;;;3.07;0.80;;;;;;;;;;5006385;28;20425;-68
2021/12/31 13:27:28;;;;;;;1.57;0.80;;;;;;;;;;5013595;28;20453;-69
2021/12/31 13:30:03;;;;;;;1.00;0.67;;;;;;;;;;5013623;28;20429;-68
2021/12/31 13:32:36;;;;;;;1.20;0.60;;;;;;;;;;5000799;28;20906;-67
2021/12/31 13:35:06;;;;;;;1.10;0.70;;;;;;;;;;5009811;28;20429;-69
2021/12/31 13:37:39;;;;;;;1.30;0.70;;;;;;;;;;5005636;28;20918;-68
2021/12/31 13:40:07;;;;;;;1.43;0.90;;;;;;;;;;4997131;28;20513;-69
2021/12/31 13:42:34;;;;;;;1.60;0.80;;;;;;;;;;5009858;28;20480;-69
2021/12/31 13:45:00;;;;;;;1.87;0.90;;;;;;;;;;5005541;28;20438;-70
2021/12/31 13:47:27;;;;;;;1.10;0.60;;;;;;;;;;5003863;28;20472;-70
2021/12/31 13:49:54;;;;;;;1.40;0.80;;;;;;;;;;5009745;28;20422;-69
2021/12/31 13:52:27;;;;;;;1.20;0.60;;;;;;;;;;5004075;28;20422;-71
2021/12/31 13:54:58;;;;;;;1.40;1.07;;;;;;;;;;5013183;28;20425;-70
2021/12/31 13:57:26;;;;;;;1.33;0.80;;;;;;;;;;5013088;28;20420;-69
2021/12/31 13:59:52;;;;;;;1.37;0.80;;;;;;;;;;5013629;28;20571;-69
2021/12/31 14:02:28;;;;;;;1.80;0.97;;;;;;;;;;5013121;28;20424;-70
2021/12/31 14:04:54;;;;;;;1.30;0.73;;;;;;;;;;5006400;28;20505;-69
2021/12/31 14:07:30;;;;;;;1.87;0.87;;;;;;;;;;5011740;28;20458;-69
2021/12/31 14:09:57;;;;;;;1.20;0.63;;;;;;;;;;5013179;28;20437;-69
2021/12/31 14:12:24;;;;;;;1.83;0.90;;;;;;;;;;5005145;28;20473;-69
2021/12/31 14:14:50;;;;;;;1.23;0.60;;;;;;;;;;5002202;28;20426;-70
2021/12/31 14:17:16;;;;;;;2.00;0.70;;;;;;;;;;5014238;28;20445;-68
2021/12/31 14:19:42;;;;;;;1.10;0.60;;;;;;;;;;5000265;28;20473;-69
2021/12/31 14:22:09;;;;;;;1.10;0.80;;;;;;;;;;4993555;28;20473;-68
2021/12/31 14:24:36;;;;;;;1.60;1.00;;;;;;;;;;5001188;28;20488;-70
2021/12/31 14:27:03;;;;;;;1.10;0.70;;;;;;;;;;5003976;28;20422;-66
2021/12/31 14:29:29;;;;;;;1.33;0.80;;;;;;;;;;5005772;28;20509;-69
2021/12/31 14:32:00;;;;;;;1.73;0.80;;;;;;;;;;5005148;28;20444;-67
2021/12/31 14:34:28;;;;;;;1.43;0.70;;;;;;;;;;5009985;28;20516;-67
2021/12/31 14:36:59;;;;;;;1.47;0.70;;;;;;;;;;5006886;28;20416;-66
2021/12/31 14:39:26;;;;;;;1.40;0.83;;;;;;;;;;5006423;28;20452;-67
2021/12/31 14:41:52;;;;;;;1.40;0.80;;;;;;;;;;5012132;28;20417;-69
2021/12/31 14:44:18;;;;;;;1.40;0.80;;;;;;;;;;5013734;28;20417;-68
2021/12/31 14:46:45;;;;;;;1.30;0.87;;;;;;;;;;5004123;28;20422;-66
2021/12/31 14:49:11;;;;;;;1.43;0.60;;;;;;;;;;5000764;28;20461;-69
2021/12/31 14:51:37;;;;;;;1.67;0.70;;;;;;;;;;4992490;28;20922;-66